sensor_id;sensor_type;location;lat;lon;timestamp;P1;durP1;ratioP1;P2;durP2;ratioP2
53644;SDS011;39547;45.554;12.068;2024-01-30T00:00:48;95.75;;;51.72;;
53644;SDS011;39547;45.554;12.068;2024-01-30T00:06:50;94.63;;;50.22;;
53644;SDS011;39547;45.554;12.068;2024-01-30T00:12:53;99.30;;;50.10;;
53644;SDS011;39547;45.554;12.068;2024-01-30T00:18:56;95.95;;;50.90;;
53644;SDS011;39547;45.554;12.068;2024-01-30T00:24:58;88.68;;;49.63;;
53644;SDS011;39547;45.554;12.068;2024-01-30T00:31:02;89.90;;;51.13;;
53644;SDS011;39547;45.554;12.068;2024-01-30T00:37:04;91.50;;;50.65;;
53644;SDS011;39547;45.554;12.068;2024-01-30T00:43:07;90.22;;;49.95;;
53644;SDS011;39547;45.554;12.068;2024-01-30T00:49:08;82.55;;;48.25;;
53644;SDS011;39547;45.554;12.068;2024-01-30T00:55:11;86.18;;;49.00;;
53644;SDS011;39547;45.554;12.068;2024-01-30T01:01:13;81.07;;;46.10;;
53644;SDS011;39547;45.554;12.068;2024-01-30T01:07:15;80.97;;;47.38;;
53644;SDS011;39547;45.554;12.068;2024-01-30T01:13:17;81.50;;;48.53;;
53644;SDS011;39547;45.554;12.068;2024-01-30T01:19:19;86.03;;;50.85;;
53644;SDS011;39547;45.554;12.068;2024-01-30T01:25:22;85.97;;;48.42;;
53644;SDS011;39547;45.554;12.068;2024-01-30T01:31:23;83.15;;;48.97;;
53644;SDS011;39547;45.554;12.068;2024-01-30T01:37:26;79.85;;;49.28;;
53644;SDS011;39547;45.554;12.068;2024-01-30T01:43:28;79.18;;;47.20;;
53644;SDS011;39547;45.554;12.068;2024-01-30T01:49:30;85.13;;;51.47;;
53644;SDS011;39547;45.554;12.068;2024-01-30T01:55:32;80.15;;;49.53;;
53644;SDS011;39547;45.554;12.068;2024-01-30T02:01:36;79.53;;;48.72;;
53644;SDS011;39547;45.554;12.068;2024-01-30T02:07:38;79.80;;;48.30;;
53644;SDS011;39547;45.554;12.068;2024-01-30T02:13:41;77.88;;;47.90;;
53644;SDS011;39547;45.554;12.068;2024-01-30T02:19:46;78.05;;;47.40;;
53644;SDS011;39547;45.554;12.068;2024-01-30T02:25:48;74.97;;;46.53;;
53644;SDS011;39547;45.554;12.068;2024-01-30T02:31:49;72.18;;;46.00;;
53644;SDS011;39547;45.554;12.068;2024-01-30T02:37:51;77.82;;;47.20;;
53644;SDS011;39547;45.554;12.068;2024-01-30T02:43:54;72.47;;;45.50;;
53644;SDS011;39547;45.554;12.068;2024-01-30T02:49:55;67.43;;;43.90;;
53644;SDS011;39547;45.554;12.068;2024-01-30T02:56:02;67.57;;;42.75;;
53644;SDS011;39547;45.554;12.068;2024-01-30T03:02:04;66.97;;;43.20;;
53644;SDS011;39547;45.554;12.068;2024-01-30T03:08:06;62.55;;;39.95;;
53644;SDS011;39547;45.554;12.068;2024-01-30T03:14:07;66.45;;;41.88;;
53644;SDS011;39547;45.554;12.068;2024-01-30T03:20:12;65.10;;;42.53;;
53644;SDS011;39547;45.554;12.068;2024-01-30T03:26:14;62.40;;;39.92;;
53644;SDS011;39547;45.554;12.068;2024-01-30T03:32:17;60.45;;;39.88;;
53644;SDS011;39547;45.554;12.068;2024-01-30T03:38:19;58.05;;;39.88;;
53644;SDS011;39547;45.554;12.068;2024-01-30T03:44:20;59.83;;;41.00;;
53644;SDS011;39547;45.554;12.068;2024-01-30T03:50:25;60.42;;;40.47;;
53644;SDS011;39547;45.554;12.068;2024-01-30T03:56:26;63.65;;;42.85;;
53644;SDS011;39547;45.554;12.068;2024-01-30T04:02:28;61.75;;;42.30;;
53644;SDS011;39547;45.554;12.068;2024-01-30T04:08:30;62.47;;;41.53;;
53644;SDS011;39547;45.554;12.068;2024-01-30T04:14:32;59.30;;;39.60;;
53644;SDS011;39547;45.554;12.068;2024-01-30T04:20:35;55.95;;;39.30;;
53644;SDS011;39547;45.554;12.068;2024-01-30T04:26:37;55.55;;;38.40;;
53644;SDS011;39547;45.554;12.068;2024-01-30T04:32:43;56.28;;;39.25;;
53644;SDS011;39547;45.554;12.068;2024-01-30T04:38:45;57.40;;;39.47;;
53644;SDS011;39547;45.554;12.068;2024-01-30T04:44:47;55.08;;;38.78;;
53644;SDS011;39547;45.554;12.068;2024-01-30T04:50:50;57.60;;;39.60;;
53644;SDS011;39547;45.554;12.068;2024-01-30T04:56:51;56.63;;;38.50;;
53644;SDS011;39547;45.554;12.068;2024-01-30T05:02:57;52.00;;;36.35;;
53644;SDS011;39547;45.554;12.068;2024-01-30T05:08:59;54.88;;;37.63;;
53644;SDS011;39547;45.554;12.068;2024-01-30T05:15:02;53.03;;;36.88;;
53644;SDS011;39547;45.554;12.068;2024-01-30T05:21:05;57.35;;;39.67;;
53644;SDS011;39547;45.554;12.068;2024-01-30T05:27:06;56.08;;;39.35;;
53644;SDS011;39547;45.554;12.068;2024-01-30T05:33:08;55.58;;;39.22;;
53644;SDS011;39547;45.554;12.068;2024-01-30T05:39:12;55.27;;;38.30;;
53644;SDS011;39547;45.554;12.068;2024-01-30T05:45:15;61.28;;;41.03;;
53644;SDS011;39547;45.554;12.068;2024-01-30T05:51:17;61.08;;;40.47;;
53644;SDS011;39547;45.554;12.068;2024-01-30T05:57:19;56.83;;;38.83;;
53644;SDS011;39547;45.554;12.068;2024-01-30T06:03:20;56.75;;;39.28;;
53644;SDS011;39547;45.554;12.068;2024-01-30T06:09:25;53.65;;;38.58;;
53644;SDS011;39547;45.554;12.068;2024-01-30T06:15:26;55.60;;;37.63;;
53644;SDS011;39547;45.554;12.068;2024-01-30T06:21:32;54.03;;;37.83;;
53644;SDS011;39547;45.554;12.068;2024-01-30T06:27:37;52.42;;;37.10;;
53644;SDS011;39547;45.554;12.068;2024-01-30T06:33:39;54.72;;;38.38;;
53644;SDS011;39547;45.554;12.068;2024-01-30T06:39:43;55.00;;;39.03;;
53644;SDS011;39547;45.554;12.068;2024-01-30T06:45:44;51.05;;;37.17;;
53644;SDS011;39547;45.554;12.068;2024-01-30T06:51:47;54.22;;;37.88;;
53644;SDS011;39547;45.554;12.068;2024-01-30T06:57:49;53.13;;;37.65;;
53644;SDS011;39547;45.554;12.068;2024-01-30T07:03:51;52.00;;;37.00;;
53644;SDS011;39547;45.554;12.068;2024-01-30T07:09:53;53.67;;;38.55;;
53644;SDS011;39547;45.554;12.068;2024-01-30T07:15:57;58.08;;;40.47;;
53644;SDS011;39547;45.554;12.068;2024-01-30T07:22:00;57.30;;;39.35;;
53644;SDS011;39547;45.554;12.068;2024-01-30T07:28:02;53.58;;;37.08;;
53644;SDS011;39547;45.554;12.068;2024-01-30T07:34:04;48.55;;;33.33;;
53644;SDS011;39547;45.554;12.068;2024-01-30T07:40:06;49.20;;;34.47;;
53644;SDS011;39547;45.554;12.068;2024-01-30T07:46:08;49.95;;;35.17;;
53644;SDS011;39547;45.554;12.068;2024-01-30T07:52:09;52.95;;;36.33;;
53644;SDS011;39547;45.554;12.068;2024-01-30T07:58:11;58.63;;;40.92;;
53644;SDS011;39547;45.554;12.068;2024-01-30T08:04:13;59.47;;;40.80;;
53644;SDS011;39547;45.554;12.068;2024-01-30T08:10:15;64.15;;;42.15;;
53644;SDS011;39547;45.554;12.068;2024-01-30T08:16:19;67.90;;;45.13;;
53644;SDS011;39547;45.554;12.068;2024-01-30T08:22:20;68.82;;;45.88;;
53644;SDS011;39547;45.554;12.068;2024-01-30T08:28:23;65.40;;;43.83;;
53644;SDS011;39547;45.554;12.068;2024-01-30T08:34:24;59.85;;;40.97;;
53644;SDS011;39547;45.554;12.068;2024-01-30T08:40:27;58.90;;;40.65;;
53644;SDS011;39547;45.554;12.068;2024-01-30T08:46:30;63.55;;;41.83;;
53644;SDS011;39547;45.554;12.068;2024-01-30T08:52:33;59.88;;;41.85;;
53644;SDS011;39547;45.554;12.068;2024-01-30T08:59:16;64.78;;;41.22;;
53644;SDS011;39547;45.554;12.068;2024-01-30T09:05:17;62.17;;;41.67;;
53644;SDS011;39547;45.554;12.068;2024-01-30T09:11:19;54.35;;;36.10;;
53644;SDS011;39547;45.554;12.068;2024-01-30T09:31:54;53.38;;;33.88;;
53644;SDS011;39547;45.554;12.068;2024-01-30T09:37:56;51.30;;;33.45;;
53644;SDS011;39547;45.554;12.068;2024-01-30T09:44:00;51.35;;;31.95;;
53644;SDS011;39547;45.554;12.068;2024-01-30T09:50:06;48.90;;;33.50;;
53644;SDS011;39547;45.554;12.068;2024-01-30T09:56:12;48.90;;;32.88;;
53644;SDS011;39547;45.554;12.068;2024-01-30T10:02:21;53.08;;;33.72;;
53644;SDS011;39547;45.554;12.068;2024-01-30T10:08:28;52.85;;;33.55;;
53644;SDS011;39547;45.554;12.068;2024-01-30T10:14:32;51.15;;;32.83;;
53644;SDS011;39547;45.554;12.068;2024-01-30T10:20:34;51.17;;;32.70;;
53644;SDS011;39547;45.554;12.068;2024-01-30T10:26:37;47.58;;;30.80;;
53644;SDS011;39547;45.554;12.068;2024-01-30T10:32:39;47.55;;;30.00;;
53644;SDS011;39547;45.554;12.068;2024-01-30T10:38:42;45.47;;;29.40;;
53644;SDS011;39547;45.554;12.068;2024-01-30T10:51:13;47.08;;;29.42;;
53644;SDS011;39547;45.554;12.068;2024-01-30T10:57:16;47.13;;;29.77;;
53644;SDS011;39547;45.554;12.068;2024-01-30T11:03:18;48.28;;;30.33;;
53644;SDS011;39547;45.554;12.068;2024-01-30T11:09:22;45.33;;;29.05;;
53644;SDS011;39547;45.554;12.068;2024-01-30T11:15:23;42.47;;;26.88;;
53644;SDS011;39547;45.554;12.068;2024-01-30T11:21:25;40.20;;;26.33;;
53644;SDS011;39547;45.554;12.068;2024-01-30T11:27:27;42.28;;;25.95;;
53644;SDS011;39547;45.554;12.068;2024-01-30T11:33:29;43.10;;;26.70;;
53644;SDS011;39547;45.554;12.068;2024-01-30T11:39:32;42.42;;;24.50;;
53644;SDS011;39547;45.554;12.068;2024-01-30T11:45:34;42.25;;;27.13;;
53644;SDS011;39547;45.554;12.068;2024-01-30T11:51:40;41.00;;;26.30;;
53644;SDS011;39547;45.554;12.068;2024-01-30T11:57:42;39.33;;;24.95;;
53644;SDS011;39547;45.554;12.068;2024-01-30T12:03:50;38.20;;;22.90;;
53644;SDS011;39547;45.554;12.068;2024-01-30T12:09:53;36.83;;;22.83;;
53644;SDS011;39547;45.554;12.068;2024-01-30T12:15:55;37.78;;;23.48;;
53644;SDS011;39547;45.554;12.068;2024-01-30T12:21:57;37.00;;;23.50;;
53644;SDS011;39547;45.554;12.068;2024-01-30T12:28:00;37.35;;;22.77;;
53644;SDS011;39547;45.554;12.068;2024-01-30T12:34:07;36.45;;;22.80;;
53644;SDS011;39547;45.554;12.068;2024-01-30T12:40:09;35.00;;;21.23;;
53644;SDS011;39547;45.554;12.068;2024-01-30T12:46:28;30.98;;;18.33;;
53644;SDS011;39547;45.554;12.068;2024-01-30T12:52:30;33.42;;;20.55;;
53644;SDS011;39547;45.554;12.068;2024-01-30T12:58:32;33.70;;;20.20;;
53644;SDS011;39547;45.554;12.068;2024-01-30T13:04:33;31.60;;;18.38;;
53644;SDS011;39547;45.554;12.068;2024-01-30T13:10:36;33.15;;;19.70;;
53644;SDS011;39547;45.554;12.068;2024-01-30T13:16:37;31.85;;;17.85;;
53644;SDS011;39547;45.554;12.068;2024-01-30T13:22:39;34.30;;;19.60;;
53644;SDS011;39547;45.554;12.068;2024-01-30T13:28:41;34.80;;;20.10;;
53644;SDS011;39547;45.554;12.068;2024-01-30T13:34:44;36.53;;;22.15;;
53644;SDS011;39547;45.554;12.068;2024-01-30T13:40:45;37.00;;;22.23;;
53644;SDS011;39547;45.554;12.068;2024-01-30T13:46:48;37.33;;;22.10;;
53644;SDS011;39547;45.554;12.068;2024-01-30T13:52:49;35.40;;;21.98;;
53644;SDS011;39547;45.554;12.068;2024-01-30T13:58:54;39.90;;;23.42;;
53644;SDS011;39547;45.554;12.068;2024-01-30T14:04:57;35.40;;;20.73;;
53644;SDS011;39547;45.554;12.068;2024-01-30T14:11:02;39.80;;;24.40;;
53644;SDS011;39547;45.554;12.068;2024-01-30T14:17:04;37.60;;;22.88;;
53644;SDS011;39547;45.554;12.068;2024-01-30T14:23:07;35.08;;;21.20;;
53644;SDS011;39547;45.554;12.068;2024-01-30T14:29:09;37.38;;;23.08;;
53644;SDS011;39547;45.554;12.068;2024-01-30T14:35:11;36.10;;;22.27;;
53644;SDS011;39547;45.554;12.068;2024-01-30T14:41:14;35.53;;;21.10;;
53644;SDS011;39547;45.554;12.068;2024-01-30T14:47:17;35.63;;;22.10;;
53644;SDS011;39547;45.554;12.068;2024-01-30T14:53:20;36.70;;;22.73;;
53644;SDS011;39547;45.554;12.068;2024-01-30T14:59:25;38.45;;;22.67;;
53644;SDS011;39547;45.554;12.068;2024-01-30T15:05:26;39.78;;;23.60;;
53644;SDS011;39547;45.554;12.068;2024-01-30T15:11:29;42.78;;;24.77;;
53644;SDS011;39547;45.554;12.068;2024-01-30T15:17:32;44.15;;;28.33;;
53644;SDS011;39547;45.554;12.068;2024-01-30T15:23:34;49.38;;;30.23;;
53644;SDS011;39547;45.554;12.068;2024-01-30T15:29:36;49.60;;;31.27;;
53644;SDS011;39547;45.554;12.068;2024-01-30T15:35:38;49.35;;;30.95;;
53644;SDS011;39547;45.554;12.068;2024-01-30T15:41:41;55.10;;;32.65;;
53644;SDS011;39547;45.554;12.068;2024-01-30T15:47:43;55.00;;;32.88;;
53644;SDS011;39547;45.554;12.068;2024-01-30T15:53:44;58.53;;;35.25;;
53644;SDS011;39547;45.554;12.068;2024-01-30T15:59:46;61.75;;;36.45;;
53644;SDS011;39547;45.554;12.068;2024-01-30T16:05:48;59.88;;;36.47;;
53644;SDS011;39547;45.554;12.068;2024-01-30T16:11:49;59.78;;;35.90;;
53644;SDS011;39547;45.554;12.068;2024-01-30T16:17:51;64.18;;;36.50;;
53644;SDS011;39547;45.554;12.068;2024-01-30T16:23:53;64.43;;;38.33;;
53644;SDS011;39547;45.554;12.068;2024-01-30T16:29:54;66.03;;;37.45;;
53644;SDS011;39547;45.554;12.068;2024-01-30T16:35:56;68.00;;;38.03;;
53644;SDS011;39547;45.554;12.068;2024-01-30T16:41:58;72.00;;;39.97;;
53644;SDS011;39547;45.554;12.068;2024-01-30T16:48:01;71.35;;;40.22;;
53644;SDS011;39547;45.554;12.068;2024-01-30T16:54:03;73.82;;;41.80;;
53644;SDS011;39547;45.554;12.068;2024-01-30T17:00:07;74.22;;;40.42;;
53644;SDS011;39547;45.554;12.068;2024-01-30T17:06:12;76.30;;;42.92;;
53644;SDS011;39547;45.554;12.068;2024-01-30T17:12:14;75.70;;;41.75;;
53644;SDS011;39547;45.554;12.068;2024-01-30T17:18:16;78.70;;;43.13;;
53644;SDS011;39547;45.554;12.068;2024-01-30T17:24:20;79.15;;;45.83;;
53644;SDS011;39547;45.554;12.068;2024-01-30T17:30:23;83.00;;;45.67;;
53644;SDS011;39547;45.554;12.068;2024-01-30T17:36:25;80.80;;;46.53;;
53644;SDS011;39547;45.554;12.068;2024-01-30T17:42:27;88.30;;;50.00;;
53644;SDS011;39547;45.554;12.068;2024-01-30T17:48:29;87.20;;;49.55;;
53644;SDS011;39547;45.554;12.068;2024-01-30T17:54:31;88.05;;;48.67;;
53644;SDS011;39547;45.554;12.068;2024-01-30T18:00:33;86.53;;;50.08;;
53644;SDS011;39547;45.554;12.068;2024-01-30T18:06:38;93.53;;;51.88;;
53644;SDS011;39547;45.554;12.068;2024-01-30T18:12:40;96.57;;;53.15;;
53644;SDS011;39547;45.554;12.068;2024-01-30T18:18:43;98.85;;;55.00;;
53644;SDS011;39547;45.554;12.068;2024-01-30T18:24:45;105.20;;;56.50;;
53644;SDS011;39547;45.554;12.068;2024-01-30T18:30:47;106.15;;;59.00;;
53644;SDS011;39547;45.554;12.068;2024-01-30T18:36:48;102.95;;;58.05;;
53644;SDS011;39547;45.554;12.068;2024-01-30T18:42:50;104.75;;;57.67;;
53644;SDS011;39547;45.554;12.068;2024-01-30T18:48:52;101.45;;;57.40;;
53644;SDS011;39547;45.554;12.068;2024-01-30T18:54:54;101.63;;;58.08;;
53644;SDS011;39547;45.554;12.068;2024-01-30T19:00:56;97.80;;;57.78;;
53644;SDS011;39547;45.554;12.068;2024-01-30T19:06:58;100.25;;;55.97;;
53644;SDS011;39547;45.554;12.068;2024-01-30T19:12:59;96.35;;;54.20;;
53644;SDS011;39547;45.554;12.068;2024-01-30T19:19:01;97.35;;;53.40;;
53644;SDS011;39547;45.554;12.068;2024-01-30T19:25:08;94.97;;;54.03;;
53644;SDS011;39547;45.554;12.068;2024-01-30T19:31:10;93.72;;;54.08;;
53644;SDS011;39547;45.554;12.068;2024-01-30T19:37:12;88.25;;;51.67;;
53644;SDS011;39547;45.554;12.068;2024-01-30T19:43:13;88.78;;;51.38;;
53644;SDS011;39547;45.554;12.068;2024-01-30T19:49:15;83.40;;;49.53;;
53644;SDS011;39547;45.554;12.068;2024-01-30T19:55:17;89.75;;;50.92;;
53644;SDS011;39547;45.554;12.068;2024-01-30T20:01:20;87.00;;;52.22;;
53644;SDS011;39547;45.554;12.068;2024-01-30T20:07:21;89.47;;;52.95;;
53644;SDS011;39547;45.554;12.068;2024-01-30T20:13:24;89.25;;;50.92;;
53644;SDS011;39547;45.554;12.068;2024-01-30T20:19:26;87.50;;;51.55;;
53644;SDS011;39547;45.554;12.068;2024-01-30T20:25:28;89.13;;;50.85;;
53644;SDS011;39547;45.554;12.068;2024-01-30T20:31:30;88.93;;;53.53;;
53644;SDS011;39547;45.554;12.068;2024-01-30T20:37:37;85.70;;;49.92;;
53644;SDS011;39547;45.554;12.068;2024-01-30T20:43:40;90.53;;;52.67;;
53644;SDS011;39547;45.554;12.068;2024-01-30T20:49:42;89.07;;;53.50;;
53644;SDS011;39547;45.554;12.068;2024-01-30T20:55:46;87.57;;;51.90;;
53644;SDS011;39547;45.554;12.068;2024-01-30T21:01:47;90.93;;;52.70;;
53644;SDS011;39547;45.554;12.068;2024-01-30T21:07:51;91.93;;;54.10;;
53644;SDS011;39547;45.554;12.068;2024-01-30T21:13:57;91.07;;;53.20;;
53644;SDS011;39547;45.554;12.068;2024-01-30T21:19:59;96.53;;;57.72;;
53644;SDS011;39547;45.554;12.068;2024-01-30T21:26:04;95.68;;;56.17;;
53644;SDS011;39547;45.554;12.068;2024-01-30T21:32:09;98.18;;;59.90;;
53644;SDS011;39547;45.554;12.068;2024-01-30T21:38:13;103.03;;;62.37;;
53644;SDS011;39547;45.554;12.068;2024-01-30T21:44:16;107.50;;;65.28;;
53644;SDS011;39547;45.554;12.068;2024-01-30T21:50:17;105.13;;;66.25;;
53644;SDS011;39547;45.554;12.068;2024-01-30T21:56:19;109.57;;;67.20;;
53644;SDS011;39547;45.554;12.068;2024-01-30T22:02:21;107.85;;;65.05;;
53644;SDS011;39547;45.554;12.068;2024-01-30T22:08:23;102.32;;;65.10;;
53644;SDS011;39547;45.554;12.068;2024-01-30T22:14:25;106.85;;;66.40;;
53644;SDS011;39547;45.554;12.068;2024-01-30T22:20:26;102.40;;;62.05;;
53644;SDS011;39547;45.554;12.068;2024-01-30T22:26:28;98.28;;;61.22;;
53644;SDS011;39547;45.554;12.068;2024-01-30T22:32:30;101.35;;;62.58;;
53644;SDS011;39547;45.554;12.068;2024-01-30T22:38:31;99.00;;;60.50;;
53644;SDS011;39547;45.554;12.068;2024-01-30T22:44:33;105.50;;;61.15;;
53644;SDS011;39547;45.554;12.068;2024-01-30T22:50:35;101.35;;;62.55;;
53644;SDS011;39547;45.554;12.068;2024-01-30T22:56:36;102.50;;;58.70;;
53644;SDS011;39547;45.554;12.068;2024-01-30T23:02:38;99.88;;;59.45;;
53644;SDS011;39547;45.554;12.068;2024-01-30T23:08:40;92.00;;;56.72;;
53644;SDS011;39547;45.554;12.068;2024-01-30T23:14:42;90.65;;;56.80;;
53644;SDS011;39547;45.554;12.068;2024-01-30T23:20:45;88.95;;;55.60;;
53644;SDS011;39547;45.554;12.068;2024-01-30T23:26:47;89.50;;;53.47;;
53644;SDS011;39547;45.554;12.068;2024-01-30T23:32:48;86.90;;;52.45;;
53644;SDS011;39547;45.554;12.068;2024-01-30T23:38:50;91.25;;;53.47;;
53644;SDS011;39547;45.554;12.068;2024-01-30T23:44:52;88.97;;;53.28;;
53644;SDS011;39547;45.554;12.068;2024-01-30T23:50:54;89.03;;;53.92;;
53644;SDS011;39547;45.554;12.068;2024-01-30T23:56:56;88.78;;;53.97;;
